< Typhoon 195322 1953 Season Typhoon 195401 >
Typhoon 195323 (DORIS)
General InformationTrack Information on Google Maps || NewsDisaster Info.ResourceGoogle EarthGE AnimationAtom FeedGeoJSON
Detalied Best Track (Time Zone = UTC)
Year Month Day Hour Lat. Long. Pressure (hPa) Wind (kt) Class Image Chart
1953 12 10 00 6.7 165.0 1004 0 2 -- Chart
1953 12 10 06 6.8 164.4 1002 0 2 -- Chart
1953 12 10 12 6.8 163.7 1004 0 2 -- Chart
1953 12 10 18 6.9 163.2 1004 0 2 -- Chart
1953 12 11 00 7.0 162.5 1004 0 2 -- Chart
1953 12 11 06 7.3 161.5 1000 0 9 -- Chart
1953 12 11 12 7.7 160.3 1000 0 9 -- Chart
1953 12 11 18 8.1 159.2 1000 0 9 -- Chart
1953 12 12 00 8.5 158.2 1000 0 9 -- Chart
1953 12 12 06 8.8 157.0 985 0 9 -- Chart
1953 12 12 12 9.2 156.1 985 0 9 -- Chart
1953 12 12 18 9.8 155.1 985 0 9 -- Chart
1953 12 13 00 10.5 154.1 985 0 9 -- Chart
1953 12 13 06 10.3 153.0 985 0 9 -- Chart
1953 12 13 12 11.0 151.8 980 0 9 -- Chart
1953 12 13 18 12.4 151.0 980 0 9 -- Chart
1953 12 14 00 13.5 150.0 977 0 9 -- Chart
1953 12 14 06 14.3 149.2 975 0 9 -- Chart
1953 12 14 12 15.0 148.5 970 0 9 -- Chart
1953 12 14 18 15.8 147.8 970 0 9 -- Chart
1953 12 15 00 16.8 147.0 960 0 9 -- Chart
1953 12 15 06 17.2 146.6 942 0 9 -- Chart
1953 12 15 12 17.8 146.2 940 0 9 -- Chart
1953 12 15 18 18.2 146.0 940 0 9 -- Chart
1953 12 16 00 18.8 145.7 940 0 9 -- Chart
1953 12 16 06 19.1 145.5 935 0 9 -- Chart
1953 12 16 12 19.3 145.4 940 0 9 -- Chart
1953 12 16 18 19.5 145.3 950 0 9 -- Chart
1953 12 17 00 19.8 145.0 955 0 9 -- Chart
1953 12 17 06 20.2 144.3 955 0 9 -- Chart
1953 12 17 12 20.2 143.8 955 0 9 -- Chart
1953 12 17 18 20.3 143.2 955 0 9 -- Chart
1953 12 18 00 20.3 142.7 955 0 9 -- Chart
1953 12 18 06 20.3 142.1 955 0 9 -- Chart
1953 12 18 12 20.6 141.9 955 0 9 -- Chart
1953 12 18 18 20.8 141.8 955 0 9 -- Chart
1953 12 19 00 21.3 141.2 952 0 9 -- Chart
1953 12 19 06 22.3 141.2 955 0 9 -- Chart
1953 12 19 12 23.0 142.0 955 0 9 -- Chart
1953 12 19 18 23.6 142.7 960 0 9 -- Chart
1953 12 20 00 24.0 143.4 965 0 9 -- Chart
1953 12 20 06 24.3 144.2 970 0 9 -- Chart
1953 12 20 12 25.0 146.2 970 0 9 -- Chart
1953 12 20 18 25.0 148.2 970 0 9 -- Chart
1953 12 21 00 25.1 150.2 980 0 9 -- Chart
1953 12 21 06 26.0 152.4 990 0 9 -- Chart
1953 12 21 12 26.8 154.7 990 0 9 -- Chart
1953 12 21 18 27.3 156.0 995 0 9 -- Chart
1953 12 22 00 28.0 157.7 1000 0 6 -- Chart
1953 12 22 06 28.3 159.0 1006 0 6 -- Chart
1953 12 22 12 28.5 160.0 1006 0 6 -- Chart
1953 12 22 18 28.8 161.4 1012 0 6 -- Chart
1953 12 23 00 29.1 163.0 1012 0 6 -- Chart
1953 12 23 06 29.0 167.0 1014 0 6 -- Chart
1953 12 23 12 29.0 170.0 1013 0 6 -- Chart
1953 12 23 18 30.0 175.0 1013 0 6 -- Chart
Japan Meteorological Agency Best Track Data | Correction Date : 1989-06-01
< Typhoon 195322 1953 Season Typhoon 195401 >

Help